Time;durP1;ratioP1;P1;durP2;ratioP2;P2;SDS_P1;SDS_P2;PMS_P1;PMS_P2;Temp;Humidity;BMP_temperature;BMP_pressure;BME280_temperature;BME280_humidity;BME280_pressure;Samples;Min_cycle;Max_cycle;Signal;HPM_P1;HPM_P2
2023/04/30 00:01:26;;;;;;;4.30;4.10;;;8.60;62.10;;;;;;6260749;28;20321;-85
2023/04/30 00:04:29;;;;;;;4.30;3.90;;;8.60;62.10;;;;;;6255999;28;20239;-85
2023/04/30 00:07:32;;;;;;;4.83;3.93;;;8.60;61.90;;;;;;6261734;28;20234;-84
2023/04/30 00:10:35;;;;;;;4.87;4.07;;;8.50;61.70;;;;;;6262645;28;20266;-85
2023/04/30 00:13:41;;;;;;;4.90;4.33;;;8.50;61.60;;;;;;6252759;28;20230;-87
2023/04/30 00:16:45;;;;;;;4.20;3.97;;;8.50;61.80;;;;;;6274200;28;20227;-78
2023/04/30 00:19:48;;;;;;;5.27;4.00;;;8.40;62.00;;;;;;6288855;28;20224;-81
2023/04/30 00:22:51;;;;;;;4.33;4.00;;;8.30;61.80;;;;;;6275133;28;20401;-78
2023/04/30 00:25:54;;;;;;;4.07;3.67;;;8.30;62.50;;;;;;6288897;28;20253;-84
2023/04/30 00:28:58;;;;;;;6.77;4.20;;;8.20;62.60;;;;;;6267478;28;20240;-85
2023/04/30 00:32:01;;;;;;;5.07;4.67;;;8.10;62.80;;;;;;6259327;28;20241;-86
2023/04/30 00:35:05;;;;;;;4.60;4.00;;;8.00;62.60;;;;;;6250135;28;20626;-84
2023/04/30 00:38:08;;;;;;;4.77;4.27;;;8.00;62.80;;;;;;6259591;28;20226;-85
2023/04/30 00:41:12;;;;;;;10.17;4.83;;;8.00;62.60;;;;;;6257590;28;20259;-86
2023/04/30 00:44:16;;;;;;;3.87;3.50;;;8.00;62.70;;;;;;6264012;28;20256;-86
2023/04/30 00:47:19;;;;;;;4.13;3.83;;;8.00;63.00;;;;;;6246262;28;20242;-81
2023/04/30 00:50:23;;;;;;;4.93;3.80;;;8.00;62.70;;;;;;6245000;28;20238;-83
2023/04/30 00:53:26;;;;;;;5.63;3.67;;;7.90;62.60;;;;;;6254822;28;20737;-85
2023/04/30 00:56:31;;;;;;;7.63;4.23;;;7.80;62.80;;;;;;6258060;28;20242;-85
2023/04/30 00:59:35;;;;;;;4.47;4.10;;;7.80;63.00;;;;;;6257275;28;20245;-87
2023/04/30 01:02:39;;;;;;;5.87;4.00;;;7.70;63.00;;;;;;6253060;28;20246;-86
2023/04/30 01:05:42;;;;;;;7.17;4.50;;;7.70;63.10;;;;;;6261801;28;20237;-83
2023/04/30 01:08:46;;;;;;;4.77;3.97;;;7.60;63.20;;;;;;6266554;28;20238;-82
2023/04/30 01:11:57;;;;;;;4.17;3.87;;;7.60;63.30;;;;;;6260548;28;20752;-86
2023/04/30 01:15:09;;;;;;;5.73;4.27;;;7.50;63.30;;;;;;6262700;28;20234;-86
2023/04/30 01:18:16;;;;;;;5.30;4.30;;;7.50;63.50;;;;;;6264228;28;20226;-84
2023/04/30 01:21:20;;;;;;;10.67;4.47;;;7.50;63.90;;;;;;6257848;28;20258;-87
2023/04/30 01:24:49;;;;;;;4.90;4.40;;;7.50;64.10;;;;;;6258836;28;20800;-86
2023/04/30 01:28:03;;;;;;;6.40;3.73;;;7.40;64.20;;;;;;6255201;28;20234;-83
2023/04/30 01:31:13;;;;;;;6.20;4.40;;;7.30;64.30;;;;;;6246665;28;20234;-87
2023/04/30 01:34:16;;;;;;;3.90;3.70;;;7.30;64.20;;;;;;6256600;28;20325;-85
2023/04/30 01:37:27;;;;;;;8.70;4.30;;;7.20;64.20;;;;;;6263649;28;20242;-86
2023/04/30 01:40:39;;;;;;;6.17;4.53;;;7.20;64.60;;;;;;6250790;28;20250;-86
2023/04/30 01:43:55;;;;;;;6.20;4.20;;;7.20;64.70;;;;;;6257627;28;20260;-85
2023/04/30 01:47:06;;;;;;;8.07;4.80;;;7.20;64.90;;;;;;6242076;28;20238;-86
2023/04/30 01:50:18;;;;;;;5.10;4.30;;;7.10;65.00;;;;;;6263924;28;20234;-84
2023/04/30 01:53:24;;;;;;;5.80;4.67;;;7.10;65.20;;;;;;6249261;28;20235;-84
2023/04/30 01:56:33;;;;;;;6.60;4.57;;;7.00;65.20;;;;;;6233401;28;20234;-86
2023/04/30 01:59:40;;;;;;;5.47;4.80;;;7.00;65.50;;;;;;6240025;28;20242;-85
2023/04/30 02:02:43;;;;;;;8.73;4.60;;;6.90;65.80;;;;;;6243920;28;20246;-87
2023/04/30 02:05:47;;;;;;;6.53;5.07;;;6.90;66.00;;;;;;6261111;28;20369;-86
2023/04/30 02:08:50;;;;;;;8.63;4.60;;;6.90;66.00;;;;;;6252429;28;20236;-82
2023/04/30 02:11:53;;;;;;;5.17;4.70;;;6.90;66.00;;;;;;6247466;28;20234;-86
2023/04/30 02:14:58;;;;;;;6.23;5.50;;;6.80;66.10;;;;;;6261031;28;20260;-85
2023/04/30 02:18:01;;;;;;;7.13;4.77;;;6.90;66.20;;;;;;6282655;28;20245;-84
2023/04/30 02:21:04;;;;;;;8.03;4.87;;;6.80;66.20;;;;;;6265981;28;20251;-86
2023/04/30 02:24:07;;;;;;;9.80;5.00;;;6.80;66.60;;;;;;6275306;28;20606;-87
2023/04/30 02:27:10;;;;;;;7.90;4.80;;;6.80;66.60;;;;;;6275136;28;20235;-85
2023/04/30 02:30:15;;;;;;;10.33;5.03;;;6.80;66.40;;;;;;6268969;28;20237;-83
2023/04/30 02:33:18;;;;;;;6.03;5.20;;;6.70;66.40;;;;;;6269387;28;20242;-84
2023/04/30 02:36:21;;;;;;;9.73;5.17;;;6.70;66.40;;;;;;6280058;28;20309;-82
2023/04/30 02:39:26;;;;;;;7.53;5.27;;;6.70;66.40;;;;;;6272537;28;20233;-80
2023/04/30 02:42:29;;;;;;;11.93;5.37;;;6.60;66.50;;;;;;6281028;28;20334;-82
2023/04/30 02:45:33;;;;;;;6.10;4.90;;;6.60;66.60;;;;;;6294892;28;20254;-83
2023/04/30 02:48:36;;;;;;;5.87;4.70;;;6.50;66.80;;;;;;6285559;28;20261;-81
2023/04/30 02:51:39;;;;;;;10.37;5.37;;;6.50;67.00;;;;;;6275606;28;20241;-83
2023/04/30 02:54:43;;;;;;;6.53;5.00;;;6.50;67.00;;;;;;6268409;28;20306;-85
2023/04/30 02:57:46;;;;;;;9.57;4.97;;;6.50;67.20;;;;;;6266523;28;20240;-85
2023/04/30 03:00:50;;;;;;;5.63;5.00;;;6.40;67.60;;;;;;6266519;28;20298;-85
2023/04/30 03:03:53;;;;;;;9.40;4.77;;;6.40;67.50;;;;;;6271992;28;20238;-84
2023/04/30 03:06:56;;;;;;;4.93;4.50;;;6.40;67.50;;;;;;6280286;28;20234;-83
2023/04/30 03:09:59;;;;;;;5.73;5.00;;;6.40;67.60;;;;;;6286618;28;20232;-81
2023/04/30 03:13:02;;;;;;;4.70;4.30;;;6.30;67.70;;;;;;6265921;28;20309;-84
2023/04/30 03:16:07;;;;;;;7.53;4.80;;;6.30;68.00;;;;;;6275464;28;20260;-82
2023/04/30 03:19:10;;;;;;;6.43;4.53;;;6.20;68.10;;;;;;6268264;28;20321;-85
2023/04/30 03:22:13;;;;;;;5.43;4.80;;;6.20;68.00;;;;;;6255542;28;20234;-83
2023/04/30 03:25:16;;;;;;;11.10;4.87;;;6.10;68.10;;;;;;6280617;28;20269;-84
2023/04/30 03:28:20;;;;;;;4.60;4.30;;;6.10;68.00;;;;;;6273577;28;20250;-85
2023/04/30 03:31:26;;;;;;;10.07;4.70;;;6.10;68.10;;;;;;6250305;28;20586;-88
2023/04/30 03:34:30;;;;;;;5.27;4.87;;;6.00;68.30;;;;;;6274623;28;20850;-85
2023/04/30 03:37:33;;;;;;;4.73;4.37;;;6.00;68.30;;;;;;6266339;28;20236;-86
2023/04/30 03:40:36;;;;;;;6.33;4.90;;;6.00;68.20;;;;;;6276482;28;20240;-86
2023/04/30 03:43:40;;;;;;;7.47;5.60;;;6.00;68.30;;;;;;6256384;28;20777;-86
2023/04/30 03:46:44;;;;;;;10.80;5.43;;;5.90;68.20;;;;;;6246551;28;20245;-86
2023/04/30 03:49:53;;;;;;;5.43;4.93;;;5.90;68.40;;;;;;6264310;28;20233;-84
2023/04/30 03:52:57;;;;;;;7.97;4.80;;;5.80;68.70;;;;;;6257136;28;20229;-86
2023/04/30 03:56:00;;;;;;;7.20;5.40;;;5.70;68.70;;;;;;6263503;28;20237;-88
2023/04/30 03:59:05;;;;;;;8.17;5.20;;;5.70;68.70;;;;;;6261429;28;20230;-86
2023/04/30 04:02:09;;;;;;;6.60;6.00;;;5.70;68.70;;;;;;6266733;28;20234;-87
2023/04/30 04:05:12;;;;;;;6.47;5.43;;;5.70;68.80;;;;;;6256976;28;20246;-83
2023/04/30 04:08:15;;;;;;;5.93;5.47;;;5.70;68.90;;;;;;6262549;28;20748;-85
2023/04/30 04:11:18;;;;;;;7.30;5.83;;;5.70;68.90;;;;;;6260186;28;20231;-86
2023/04/30 04:14:22;;;;;;;8.30;5.83;;;5.60;69.10;;;;;;6268233;28;20245;-85
2023/04/30 04:17:26;;;;;;;6.47;5.47;;;5.60;69.00;;;;;;6267999;28;20909;-86
2023/04/30 04:20:29;;;;;;;6.93;5.07;;;5.60;69.20;;;;;;6265660;28;20238;-86
2023/04/30 04:23:33;;;;;;;6.00;5.30;;;5.60;69.20;;;;;;6269624;28;20243;-82
2023/04/30 04:26:36;;;;;;;6.83;5.10;;;5.60;69.30;;;;;;6265305;28;20640;-86
2023/04/30 04:29:39;;;;;;;6.37;5.40;;;5.60;69.10;;;;;;6256458;28;20236;-85
2023/04/30 04:32:48;;;;;;;6.83;5.10;;;5.50;69.20;;;;;;6265085;28;20920;-86
2023/04/30 04:35:51;;;;;;;8.20;5.33;;;5.50;69.30;;;;;;6250369;28;20304;-86
2023/04/30 04:38:54;;;;;;;8.23;5.90;;;5.50;69.20;;;;;;6242077;28;20322;-84
2023/04/30 04:41:57;;;;;;;5.73;5.17;;;5.50;69.30;;;;;;6249269;28;20234;-85
2023/04/30 04:45:02;;;;;;;5.80;5.20;;;5.60;69.20;;;;;;6251802;28;20245;-88
2023/04/30 04:48:07;;;;;;;6.17;5.60;;;5.60;69.00;;;;;;6248472;28;20245;-87
2023/04/30 04:51:10;;;;;;;6.20;5.70;;;5.60;68.90;;;;;;6249094;28;20841;-87
2023/04/30 04:54:13;;;;;;;6.07;5.57;;;5.70;68.70;;;;;;6250259;28;20227;-84
2023/04/30 04:57:17;;;;;;;9.00;6.47;;;5.70;68.60;;;;;;6243260;28;20241;-87
2023/04/30 05:00:21;;;;;;;7.00;5.77;;;5.80;68.40;;;;;;6239856;28;20239;-86
2023/04/30 05:03:28;;;;;;;7.87;5.73;;;5.80;68.30;;;;;;6251340;28;20258;-84
2023/04/30 05:06:32;;;;;;;6.00;5.50;;;5.80;68.00;;;;;;6270949;28;20238;-86
2023/04/30 05:09:35;;;;;;;9.90;5.40;;;5.90;67.90;;;;;;6265396;28;20218;-83
2023/04/30 05:12:38;;;;;;;8.77;5.80;;;5.90;68.10;;;;;;6278357;28;20329;-85
2023/04/30 05:15:42;;;;;;;8.53;5.27;;;6.00;67.80;;;;;;6286290;28;20300;-86
2023/04/30 05:18:46;;;;;;;7.10;5.43;;;6.10;67.40;;;;;;6235300;28;20318;-84
2023/04/30 05:21:50;;;;;;;6.83;5.03;;;6.20;67.40;;;;;;6260446;28;20246;-86
2023/04/30 05:24:53;;;;;;;6.43;5.77;;;6.40;67.30;;;;;;6258987;28;20320;-85
2023/04/30 05:27:57;;;;;;;8.47;5.63;;;6.50;66.70;;;;;;6282774;28;20299;-86
2023/04/30 05:31:02;;;;;;;7.37;5.47;;;6.70;66.20;;;;;;6267070;28;20239;-87
2023/04/30 05:34:07;;;;;;;9.80;5.80;;;6.70;65.80;;;;;;6265244;28;20886;-87
2023/04/30 05:37:13;;;;;;;6.10;5.50;;;6.90;65.40;;;;;;6275238;28;20255;-84
2023/04/30 05:40:19;;;;;;;6.17;4.87;;;7.00;65.00;;;;;;6268798;28;20285;-86
2023/04/30 05:43:23;;;;;;;8.90;5.63;;;7.30;64.80;;;;;;6277230;28;20861;-85
2023/04/30 05:46:26;;;;;;;5.73;4.87;;;7.50;64.20;;;;;;6281096;28;20245;-87
2023/04/30 05:49:31;;;;;;;6.60;5.50;;;7.60;63.80;;;;;;6279360;28;20752;-86
2023/04/30 05:52:38;;;;;;;7.57;5.73;;;7.80;63.60;;;;;;6262437;28;20235;-86
2023/04/30 05:55:41;;;;;;;8.47;5.50;;;8.00;62.30;;;;;;6243378;28;20237;-89
2023/04/30 05:58:44;;;;;;;8.80;5.60;;;8.20;61.90;;;;;;6240135;28;20618;-81
2023/04/30 06:01:47;;;;;;;10.83;5.20;;;8.40;61.60;;;;;;6222954;28;20353;-86
2023/04/30 06:04:52;;;;;;;6.87;5.70;;;8.60;60.90;;;;;;6250141;28;20718;-87
2023/04/30 06:07:55;;;;;;;6.87;5.10;;;8.60;60.50;;;;;;6248485;28;20245;-87
2023/04/30 06:10:59;;;;;;;6.33;5.10;;;8.80;60.20;;;;;;6259094;28;20238;-85
2023/04/30 06:14:03;;;;;;;6.73;5.07;;;9.00;60.00;;;;;;6266280;28;20217;-85
2023/04/30 06:17:06;;;;;;;9.07;5.30;;;9.20;59.50;;;;;;6277837;28;20459;-87
2023/04/30 06:20:13;;;;;;;6.30;5.20;;;9.50;58.90;;;;;;6256825;28;20242;-88
2023/04/30 06:23:16;;;;;;;8.83;5.00;;;9.50;58.90;;;;;;6276220;28;20290;-86
2023/04/30 06:26:20;;;;;;;8.73;5.27;;;9.60;58.20;;;;;;6273142;28;20349;-86
2023/04/30 06:29:24;;;;;;;6.57;5.03;;;9.80;57.80;;;;;;6253110;28;20250;-85
2023/04/30 06:32:27;;;;;;;7.37;5.50;;;9.80;57.90;;;;;;6244994;28;20795;-88
2023/04/30 06:35:32;;;;;;;5.93;5.00;;;10.00;57.50;;;;;;6249904;28;20234;-86
2023/04/30 06:38:35;;;;;;;7.97;5.40;;;10.10;56.60;;;;;;6277383;28;20282;-87
2023/04/30 06:41:38;;;;;;;7.93;5.40;;;10.10;56.80;;;;;;6282656;28;20332;-86
2023/04/30 06:44:42;;;;;;;9.73;4.87;;;10.20;56.30;;;;;;6280327;28;20326;-84
2023/04/30 06:47:45;;;;;;;6.83;4.87;;;10.30;56.00;;;;;;6273009;28;20864;-83
2023/04/30 06:50:50;;;;;;;6.90;4.93;;;10.30;55.80;;;;;;6248672;28;20304;-85
2023/04/30 06:53:53;;;;;;;5.33;4.70;;;10.20;55.50;;;;;;6242205;28;20261;-84
2023/04/30 06:56:56;;;;;;;6.67;4.83;;;10.40;56.10;;;;;;6239186;28;20234;-81
2023/04/30 07:00:01;;;;;;;10.03;5.00;;;10.60;55.70;;;;;;6239412;28;20241;-82
2023/04/30 07:03:04;;;;;;;6.60;5.40;;;10.80;55.30;;;;;;6238577;28;20227;-81
2023/04/30 07:06:08;;;;;;;5.07;4.50;;;10.50;55.00;;;;;;6232422;28;20234;-84
2023/04/30 07:09:14;;;;;;;11.27;4.90;;;10.00;56.00;;;;;;6238759;28;20227;-84
2023/04/30 07:12:18;;;;;;;9.60;4.97;;;10.20;55.90;;;;;;6242214;28;20231;-83
2023/04/30 07:15:21;;;;;;;5.20;4.70;;;10.40;55.20;;;;;;6237918;28;20238;-83
2023/04/30 07:18:27;;;;;;;7.00;4.40;;;10.70;55.50;;;;;;6234676;28;20745;-83
2023/04/30 07:21:32;;;;;;;8.07;4.83;;;10.80;55.30;;;;;;6250836;28;20562;-83
2023/04/30 07:24:35;;;;;;;5.20;4.70;;;10.80;55.20;;;;;;6233205;28;20241;-83
2023/04/30 07:27:38;;;;;;;13.20;5.60;;;10.60;54.70;;;;;;6239096;28;20238;-82
2023/04/30 07:30:42;;;;;;;12.67;5.40;;;10.30;55.50;;;;;;6235423;28;20242;-83
2023/04/30 07:33:45;;;;;;;10.37;5.03;;;10.20;54.90;;;;;;6244385;28;20229;-83
2023/04/30 07:36:51;;;;;;;9.63;6.00;;;10.30;56.20;;;;;;6269539;28;20465;-83
2023/04/30 07:39:54;;;;;;;10.83;5.50;;;10.40;55.20;;;;;;6247645;28;20231;-84
2023/04/30 07:42:57;;;;;;;6.67;5.70;;;10.20;55.60;;;;;;6247318;28;20627;-76
2023/04/30 07:46:01;;;;;;;5.97;5.27;;;10.00;55.90;;;;;;6249885;28;20267;-82
2023/04/30 07:49:04;;;;;;;6.90;5.50;;;9.70;55.80;;;;;;6248687;28;20825;-82
2023/04/30 07:52:09;;;;;;;5.57;4.37;;;9.80;56.10;;;;;;6259082;28;20251;-82
2023/04/30 07:55:13;;;;;;;7.77;5.07;;;10.00;54.70;;;;;;6258212;28;20247;-82
2023/04/30 07:58:16;;;;;;;5.97;5.00;;;10.00;55.10;;;;;;6256593;28;20705;-83
2023/04/30 08:01:19;;;;;;;4.93;4.47;;;10.00;54.30;;;;;;6257028;28;20871;-81
2023/04/30 08:04:25;;;;;;;6.83;5.17;;;10.00;54.80;;;;;;6268266;28;20232;-81
2023/04/30 08:07:29;;;;;;;5.60;4.70;;;10.00;54.50;;;;;;6255781;28;20749;-84
2023/04/30 08:10:36;;;;;;;10.60;4.67;;;10.00;53.90;;;;;;6258605;28;20237;-80
2023/04/30 08:13:39;;;;;;;5.07;4.67;;;10.00;54.80;;;;;;6266131;28;20337;-83
2023/04/30 08:16:42;;;;;;;5.33;4.83;;;10.10;55.20;;;;;;6277689;28;20240;-81
2023/04/30 08:19:46;;;;;;;4.70;4.30;;;10.20;54.50;;;;;;6263392;28;20232;-79
2023/04/30 08:22:51;;;;;;;4.60;4.30;;;10.20;53.10;;;;;;6294161;28;20278;-78
2023/04/30 08:25:54;;;;;;;6.60;4.57;;;10.30;52.50;;;;;;6268018;28;20235;-84
2023/04/30 08:28:58;;;;;;;9.40;4.70;;;10.50;51.50;;;;;;6259687;28;20306;-84
2023/04/30 08:32:04;;;;;;;7.83;4.50;;;10.50;52.30;;;;;;6246364;28;20234;-82
2023/04/30 08:35:09;;;;;;;4.87;4.50;;;10.40;53.10;;;;;;6243959;28;20237;-83
2023/04/30 08:38:13;;;;;;;4.70;4.10;;;10.20;52.10;;;;;;6252022;28;20738;-82
2023/04/30 08:41:16;;;;;;;4.43;4.03;;;10.20;50.10;;;;;;6244672;28;20638;-83
2023/04/30 08:44:22;;;;;;;5.97;3.87;;;10.30;50.50;;;;;;6245904;28;20227;-82
2023/04/30 08:47:26;;;;;;;5.33;4.60;;;10.40;51.40;;;;;;6239704;28;20243;-81
2023/04/30 08:50:29;;;;;;;7.00;4.63;;;10.50;50.90;;;;;;6245960;28;20241;-83
2023/04/30 08:53:36;;;;;;;5.03;4.30;;;10.50;50.40;;;;;;6240420;28;20240;-80
2023/04/30 08:56:39;;;;;;;5.00;4.37;;;10.50;51.30;;;;;;6248573;28;20741;-82
2023/04/30 08:59:45;;;;;;;4.47;4.20;;;10.40;50.50;;;;;;6249209;28;20254;-83
2023/04/30 09:02:50;;;;;;;5.60;4.20;;;10.60;49.40;;;;;;6271095;28;20230;-80
2023/04/30 09:05:53;;;;;;;4.17;3.80;;;10.70;48.60;;;;;;6290092;28;20659;-79
2023/04/30 09:08:57;;;;;;;4.77;4.43;;;11.00;49.10;;;;;;6289086;28;20222;-79
2023/04/30 09:12:14;;;;;;;4.30;4.00;;;11.10;49.50;;;;;;6300658;28;20261;-83
2023/04/30 09:15:21;;;;;;;4.20;3.90;;;11.20;46.80;;;;;;6303902;28;20294;-83
2023/04/30 09:18:24;;;;;;;4.30;3.90;;;11.30;47.50;;;;;;6290256;28;20225;-79
2023/04/30 09:21:34;;;;;;;5.40;4.30;;;11.30;47.30;;;;;;6304404;28;20237;-78
2023/04/30 09:24:48;;;;;;;4.03;3.73;;;11.20;48.20;;;;;;6283891;28;20221;-83
2023/04/30 09:28:07;;;;;;;5.90;3.80;;;11.40;48.10;;;;;;6258746;28;20238;-79
2023/04/30 09:31:20;;;;;;;5.37;3.93;;;11.40;47.60;;;;;;6258906;28;20234;-82
2023/04/30 09:34:34;;;;;;;4.20;3.90;;;11.50;47.20;;;;;;6262021;28;20317;-81
2023/04/30 09:37:38;;;;;;;5.07;3.80;;;11.50;46.30;;;;;;6256859;28;20270;-83
2023/04/30 09:40:44;;;;;;;4.10;3.67;;;11.50;45.80;;;;;;6270568;28;20240;-85
2023/04/30 09:43:47;;;;;;;8.33;4.13;;;11.60;46.10;;;;;;6244965;28;20237;-80
2023/04/30 09:46:51;;;;;;;3.67;3.47;;;11.70;46.70;;;;;;6234739;28;20764;-79
2023/04/30 09:49:54;;;;;;;4.60;3.37;;;11.90;46.00;;;;;;6262859;28;20237;-78
2023/04/30 09:53:06;;;;;;;4.67;3.73;;;11.70;45.50;;;;;;6271395;28;20226;-80
2023/04/30 09:56:14;;;;;;;5.83;3.53;;;11.70;45.20;;;;;;6300126;28;20234;-80
2023/04/30 09:59:21;;;;;;;4.00;3.70;;;11.70;45.80;;;;;;6303622;28;20274;-81
2023/04/30 10:02:25;;;;;;;3.53;3.23;;;11.90;46.30;;;;;;6293578;28;20624;-77
2023/04/30 10:05:28;;;;;;;3.37;3.17;;;12.00;44.90;;;;;;6291504;28;20222;-78
2023/04/30 10:08:36;;;;;;;3.80;3.43;;;12.10;45.20;;;;;;6288831;28;20256;-78
2023/04/30 10:11:42;;;;;;;6.33;5.70;;;12.20;45.50;;;;;;6264126;28;20725;-78
2023/04/30 10:14:52;;;;;;;4.13;3.83;;;12.10;45.00;;;;;;6272118;28;20317;-80
2023/04/30 10:18:02;;;;;;;4.80;3.60;;;12.10;44.50;;;;;;6279647;28;20692;-77
2023/04/30 10:21:10;;;;;;;3.63;3.30;;;11.90;43.60;;;;;;6255704;28;20246;-76
2023/04/30 10:24:14;;;;;;;4.63;3.90;;;12.20;44.80;;;;;;6253595;28;20859;-80
2023/04/30 10:27:20;;;;;;;3.80;3.50;;;12.50;43.00;;;;;;6262928;28;21449;-78
2023/04/30 10:30:23;;;;;;;3.87;3.57;;;12.50;43.20;;;;;;6262698;28;20249;-77
2023/04/30 10:33:34;;;;;;;4.17;3.63;;;12.60;42.90;;;;;;6259837;28;20230;-79
2023/04/30 10:36:43;;;;;;;3.37;3.17;;;12.70;42.00;;;;;;6258420;28;20234;-81
2023/04/30 10:39:47;;;;;;;6.00;3.47;;;12.70;43.00;;;;;;6255059;28;20326;-83
2023/04/30 10:42:54;;;;;;;3.43;3.10;;;12.80;43.10;;;;;;6256665;28;20325;-81
2023/04/30 10:45:58;;;;;;;3.77;3.43;;;12.80;43.30;;;;;;6265078;28;20293;-81
2023/04/30 10:49:01;;;;;;;3.00;2.90;;;12.80;44.30;;;;;;6260157;28;20315;-81
2023/04/30 10:52:05;;;;;;;5.33;3.50;;;12.80;44.10;;;;;;6265191;28;20249;-83
2023/04/30 10:55:10;;;;;;;5.50;3.47;;;12.90;42.40;;;;;;6264914;28;20955;-82
2023/04/30 10:58:26;;;;;;;6.73;3.60;;;13.00;42.10;;;;;;6256800;28;20242;-83
2023/04/30 11:01:29;;;;;;;5.20;3.73;;;13.10;42.60;;;;;;6245837;28;20227;-83
2023/04/30 11:04:33;;;;;;;3.80;3.40;;;13.20;42.90;;;;;;6255549;28;20891;-83
2023/04/30 11:07:36;;;;;;;3.33;3.00;;;13.20;42.70;;;;;;6255297;28;20241;-82
2023/04/30 11:10:57;;;;;;;4.10;3.70;;;13.20;42.10;;;;;;6275514;28;20230;-79
2023/04/30 11:14:02;;;;;;;3.43;3.33;;;13.20;42.30;;;;;;6273915;28;20276;-81
2023/04/30 11:17:05;;;;;;;4.37;3.50;;;13.20;43.10;;;;;;6265549;28;20731;-79
2023/04/30 11:20:13;;;;;;;3.80;3.50;;;13.20;43.20;;;;;;6259422;28;20645;-81
2023/04/30 11:23:17;;;;;;;5.33;3.60;;;13.20;42.50;;;;;;6255271;28;20226;-84
2023/04/30 11:27:05;;;;;;;4.17;3.40;;;13.50;42.40;;;;;;6247397;28;20377;-84
2023/04/30 11:30:15;;;;;;;3.33;3.13;;;13.60;42.70;;;;;;6260355;28;20233;-82
2023/04/30 11:33:18;;;;;;;4.37;3.60;;;13.70;42.00;;;;;;6244801;28;20234;-81
2023/04/30 11:36:24;;;;;;;3.77;3.47;;;13.80;41.90;;;;;;6243649;28;20235;-81
2023/04/30 11:39:28;;;;;;;4.37;3.97;;;13.80;41.80;;;;;;6255585;28;20226;-81
2023/04/30 11:42:33;;;;;;;3.47;3.20;;;13.50;41.50;;;;;;6245741;28;20605;-80
2023/04/30 11:45:39;;;;;;;3.50;3.30;;;13.60;41.50;;;;;;6253138;28;20625;-85
2023/04/30 11:48:44;;;;;;;4.10;3.80;;;13.70;42.00;;;;;;6256377;28;20397;-77
2023/04/30 11:51:49;;;;;;;4.17;3.70;;;14.00;42.10;;;;;;6250832;28;20321;-84
2023/04/30 11:54:56;;;;;;;3.30;3.20;;;13.90;41.30;;;;;;6252845;28;20747;-82
2023/04/30 11:57:59;;;;;;;3.80;3.40;;;14.10;42.00;;;;;;6253330;28;20283;-82
2023/04/30 12:01:05;;;;;;;4.30;3.50;;;14.20;41.80;;;;;;6231241;28;20286;-78
2023/04/30 12:04:08;;;;;;;4.50;3.67;;;14.10;41.60;;;;;;6239775;28;20238;-78
2023/04/30 12:07:12;;;;;;;4.17;3.60;;;14.10;41.90;;;;;;6250390;28;20235;-79
2023/04/30 12:10:15;;;;;;;7.90;4.13;;;14.20;41.60;;;;;;6270682;28;20256;-79
2023/04/30 12:13:18;;;;;;;4.93;3.37;;;14.20;40.70;;;;;;6248193;28;21491;-80
2023/04/30 12:16:25;;;;;;;4.17;3.73;;;14.20;40.80;;;;;;6250755;28;20747;-80
2023/04/30 12:19:28;;;;;;;4.53;3.37;;;14.20;40.90;;;;;;6249076;28;20226;-80
2023/04/30 12:22:31;;;;;;;4.23;3.87;;;14.40;41.50;;;;;;6254588;28;20234;-81
2023/04/30 12:25:41;;;;;;;3.80;3.47;;;14.50;42.10;;;;;;6263995;28;20299;-80
2023/04/30 12:28:47;;;;;;;3.87;3.67;;;14.50;42.20;;;;;;6257073;28;20241;-82
2023/04/30 12:31:52;;;;;;;4.63;3.53;;;14.20;41.90;;;;;;6256252;28;20635;-82
2023/04/30 12:34:58;;;;;;;3.23;3.03;;;14.20;42.70;;;;;;6257832;28;20326;-81
2023/04/30 12:38:03;;;;;;;6.83;3.93;;;14.20;43.50;;;;;;6258381;28;20235;-80
2023/04/30 12:41:12;;;;;;;4.23;3.60;;;14.30;42.30;;;;;;6251316;28;20313;-82
2023/04/30 12:44:22;;;;;;;3.80;3.50;;;14.30;42.40;;;;;;6239143;28;20324;-83
2023/04/30 12:47:26;;;;;;;3.87;3.57;;;14.30;41.90;;;;;;6235790;28;20247;-80
2023/04/30 12:50:29;;;;;;;3.80;3.60;;;14.30;42.50;;;;;;6241926;28;20238;-82
2023/04/30 12:53:33;;;;;;;3.33;3.20;;;14.40;42.30;;;;;;6268077;28;20234;-82
2023/04/30 12:56:36;;;;;;;4.13;3.73;;;14.70;42.70;;;;;;6263968;28;20230;-82
2023/04/30 12:59:55;;;;;;;5.50;4.07;;;14.80;42.10;;;;;;6258622;28;20321;-82
2023/04/30 13:03:01;;;;;;;5.70;3.63;;;15.00;42.00;;;;;;6250493;28;20229;-80
2023/04/30 13:06:05;;;;;;;6.77;4.20;;;15.00;42.20;;;;;;6264396;28;20705;-81
2023/04/30 13:09:09;;;;;;;4.07;3.73;;;15.00;42.00;;;;;;6264255;28;20858;-80
2023/04/30 13:12:13;;;;;;;4.10;3.63;;;15.00;42.10;;;;;;6266459;28;20760;-80
2023/04/30 13:15:16;;;;;;;5.50;4.40;;;14.80;41.80;;;;;;6254610;28;20234;-84
2023/04/30 13:19:06;;;;;;;4.80;4.40;;;14.80;42.30;;;;;;6264701;28;20256;-82
2023/04/30 13:22:11;;;;;;;4.10;3.73;;;14.90;42.90;;;;;;6242154;28;20749;-84
2023/04/30 13:25:15;;;;;;;6.23;3.70;;;15.00;42.10;;;;;;6246839;28;21026;-83
2023/04/30 13:28:18;;;;;;;3.60;3.40;;;15.20;41.90;;;;;;6241524;28;20266;-81
2023/04/30 13:31:22;;;;;;;3.83;3.43;;;15.20;41.80;;;;;;6243419;28;20237;-81
2023/04/30 13:34:25;;;;;;;5.10;4.00;;;15.30;42.40;;;;;;6246200;28;20242;-81
2023/04/30 13:37:30;;;;;;;4.07;3.67;;;15.30;42.30;;;;;;6243561;28;20238;-81
2023/04/30 13:40:33;;;;;;;5.13;4.20;;;15.40;43.20;;;;;;6238610;28;20243;-83
2023/04/30 13:43:37;;;;;;;3.87;3.50;;;15.60;42.10;;;;;;6243184;28;20235;-83
2023/04/30 13:46:44;;;;;;;7.03;4.10;;;15.50;42.20;;;;;;6241205;28;20231;-80
2023/04/30 13:49:47;;;;;;;4.00;3.60;;;15.60;42.00;;;;;;6257684;28;20630;-83
2023/04/30 13:52:52;;;;;;;4.37;3.73;;;15.60;42.00;;;;;;6234763;28;20239;-83
2023/04/30 13:55:55;;;;;;;4.43;3.70;;;15.40;42.30;;;;;;6240473;28;20234;-80
2023/04/30 13:58:58;;;;;;;3.90;3.60;;;15.50;42.50;;;;;;6235557;28;20283;-81
2023/04/30 14:02:01;;;;;;;5.07;3.93;;;15.50;41.80;;;;;;6234261;28;20239;-83
2023/04/30 14:05:05;;;;;;;3.67;3.47;;;15.40;42.00;;;;;;6238152;28;20244;-82
2023/04/30 14:08:11;;;;;;;3.63;3.33;;;15.40;42.60;;;;;;6248028;28;20261;-82
